Reid Restricted Landing Area

Jump to: basic info | weather | runways | comments

Related pages: nearby airports | nearby navaids | notams | map

Basic information (top)

Codes: 6IL6
Location: lon 42.118401, lat -88.407898, elev 920 ft / 280 m msl
Status: small_airport

Weather (top)

Current conditions for Dupage Airport 15nm (27km) SSE (rec'd 2014/10/30 17:52Z):

KDPA 301752Z 22011KT 10SM BKN100 09/02 A3009 RMK AO2 SLP194 T00940017 10100 21006 58011

Airport forecast for Dupage Airport 15nm (27km) SSE (rec'd 2014/10/30 18:42Z):

TAF KDPA 301739Z 3018/3118 23008KT P6SM SCT060 BKN090 
     FM302300 25005KT P6SM SCT035 OVC070 
     FM310400 30010G16KT P6SM VCSH SCT020 OVC030 
     FM310700 33014G24KT P6SM -SHSN SCT012 BKN018 
     FM311400 35024G35KT P6SM BKN030

Runways (top)

E/W: 3,000 x 105 ft (914 x 32 m) — grass — not lighted

N/S: 2,100 x 105 ft (640 x 32 m) — grass — not lighted

Latest comments (top)

No comments yet for Reid Restricted Landing Area

More... (top)

See also NOTAMs and nearby airports and navaids, or visit the Reid Restricted Landing Area page at the main OurAirports website..